sensor_id;sensor_type;location;lat;lon;timestamp;P1;durP1;ratioP1;P2;durP2;ratioP2
10945;SDS011;5525;42.648;23.368;2023-12-07T00:01:35;21.77;;;13.75;;
10945;SDS011;5525;42.648;23.368;2023-12-07T00:04:02;25.65;;;14.65;;
10945;SDS011;5525;42.648;23.368;2023-12-07T00:06:29;21.17;;;14.05;;
10945;SDS011;5525;42.648;23.368;2023-12-07T00:08:56;23.75;;;14.65;;
10945;SDS011;5525;42.648;23.368;2023-12-07T00:11:25;24.45;;;15.00;;
10945;SDS011;5525;42.648;23.368;2023-12-07T00:13:51;22.30;;;14.50;;
10945;SDS011;5525;42.648;23.368;2023-12-07T00:16:18;22.70;;;13.57;;
10945;SDS011;5525;42.648;23.368;2023-12-07T00:18:45;24.98;;;15.23;;
10945;SDS011;5525;42.648;23.368;2023-12-07T00:21:12;25.20;;;15.25;;
10945;SDS011;5525;42.648;23.368;2023-12-07T00:23:38;26.73;;;16.02;;
10945;SDS011;5525;42.648;23.368;2023-12-07T00:26:05;26.90;;;15.73;;
10945;SDS011;5525;42.648;23.368;2023-12-07T00:28:33;24.75;;;15.48;;
10945;SDS011;5525;42.648;23.368;2023-12-07T00:31:00;24.23;;;15.07;;
10945;SDS011;5525;42.648;23.368;2023-12-07T00:33:27;23.30;;;15.85;;
10945;SDS011;5525;42.648;23.368;2023-12-07T00:35:54;25.20;;;15.55;;
10945;SDS011;5525;42.648;23.368;2023-12-07T00:38:20;24.65;;;15.73;;
10945;SDS011;5525;42.648;23.368;2023-12-07T00:40:47;25.80;;;15.55;;
10945;SDS011;5525;42.648;23.368;2023-12-07T00:43:14;24.67;;;15.90;;
10945;SDS011;5525;42.648;23.368;2023-12-07T00:45:43;23.95;;;16.33;;
10945;SDS011;5525;42.648;23.368;2023-12-07T00:48:10;29.58;;;17.38;;
10945;SDS011;5525;42.648;23.368;2023-12-07T00:50:37;29.33;;;17.65;;
10945;SDS011;5525;42.648;23.368;2023-12-07T00:53:04;26.20;;;17.15;;
10945;SDS011;5525;42.648;23.368;2023-12-07T00:55:30;29.17;;;17.27;;
10945;SDS011;5525;42.648;23.368;2023-12-07T00:57:57;26.15;;;17.05;;
10945;SDS011;5525;42.648;23.368;2023-12-07T01:00:25;30.33;;;18.02;;
10945;SDS011;5525;42.648;23.368;2023-12-07T01:02:53;31.20;;;18.48;;
10945;SDS011;5525;42.648;23.368;2023-12-07T01:05:20;30.15;;;17.60;;
10945;SDS011;5525;42.648;23.368;2023-12-07T01:07:47;33.13;;;19.55;;
10945;SDS011;5525;42.648;23.368;2023-12-07T01:10:14;37.85;;;21.58;;
10945;SDS011;5525;42.648;23.368;2023-12-07T01:12:41;36.05;;;21.05;;
10945;SDS011;5525;42.648;23.368;2023-12-07T01:15:08;37.22;;;21.00;;
10945;SDS011;5525;42.648;23.368;2023-12-07T01:17:35;35.67;;;20.92;;
10945;SDS011;5525;42.648;23.368;2023-12-07T01:20:04;33.65;;;20.30;;
10945;SDS011;5525;42.648;23.368;2023-12-07T01:22:37;37.58;;;21.60;;
10945;SDS011;5525;42.648;23.368;2023-12-07T01:25:04;36.35;;;20.73;;
10945;SDS011;5525;42.648;23.368;2023-12-07T01:27:32;37.35;;;21.38;;
10945;SDS011;5525;42.648;23.368;2023-12-07T01:29:59;35.35;;;20.85;;
10945;SDS011;5525;42.648;23.368;2023-12-07T01:32:26;37.47;;;21.02;;
10945;SDS011;5525;42.648;23.368;2023-12-07T01:34:53;38.63;;;21.40;;
10945;SDS011;5525;42.648;23.368;2023-12-07T01:37:21;38.20;;;20.48;;
10945;SDS011;5525;42.648;23.368;2023-12-07T01:39:48;37.40;;;21.63;;
10945;SDS011;5525;42.648;23.368;2023-12-07T01:42:15;41.20;;;22.20;;
10945;SDS011;5525;42.648;23.368;2023-12-07T01:44:42;42.75;;;21.98;;
10945;SDS011;5525;42.648;23.368;2023-12-07T01:47:09;37.33;;;21.48;;
10945;SDS011;5525;42.648;23.368;2023-12-07T01:49:36;41.42;;;23.23;;
10945;SDS011;5525;42.648;23.368;2023-12-07T01:52:04;38.38;;;21.90;;
10945;SDS011;5525;42.648;23.368;2023-12-07T01:54:33;41.45;;;22.77;;
10945;SDS011;5525;42.648;23.368;2023-12-07T01:57:01;42.95;;;24.23;;
10945;SDS011;5525;42.648;23.368;2023-12-07T01:59:28;39.40;;;22.05;;
10945;SDS011;5525;42.648;23.368;2023-12-07T02:01:55;37.30;;;22.13;;
10945;SDS011;5525;42.648;23.368;2023-12-07T02:04:22;38.28;;;21.45;;
10945;SDS011;5525;42.648;23.368;2023-12-07T02:06:49;35.33;;;20.67;;
10945;SDS011;5525;42.648;23.368;2023-12-07T02:09:16;33.33;;;18.40;;
10945;SDS011;5525;42.648;23.368;2023-12-07T02:11:45;35.50;;;20.33;;
10945;SDS011;5525;42.648;23.368;2023-12-07T02:14:12;33.00;;;19.80;;
10945;SDS011;5525;42.648;23.368;2023-12-07T02:16:39;34.20;;;19.45;;
10945;SDS011;5525;42.648;23.368;2023-12-07T02:19:22;34.25;;;18.88;;
10945;SDS011;5525;42.648;23.368;2023-12-07T02:22:09;32.03;;;20.25;;
10945;SDS011;5525;42.648;23.368;2023-12-07T02:24:42;37.15;;;19.60;;
10945;SDS011;5525;42.648;23.368;2023-12-07T02:27:33;36.75;;;21.02;;
10945;SDS011;5525;42.648;23.368;2023-12-07T02:30:01;36.80;;;20.58;;
10945;SDS011;5525;42.648;23.368;2023-12-07T02:32:28;35.75;;;20.92;;
10945;SDS011;5525;42.648;23.368;2023-12-07T02:34:54;35.00;;;20.20;;
10945;SDS011;5525;42.648;23.368;2023-12-07T02:37:22;35.72;;;20.55;;
10945;SDS011;5525;42.648;23.368;2023-12-07T02:39:54;34.70;;;20.42;;
10945;SDS011;5525;42.648;23.368;2023-12-07T02:42:22;37.28;;;20.20;;
10945;SDS011;5525;42.648;23.368;2023-12-07T02:44:52;42.22;;;30.25;;
10945;SDS011;5525;42.648;23.368;2023-12-07T02:47:19;39.05;;;24.50;;
10945;SDS011;5525;42.648;23.368;2023-12-07T02:49:46;35.95;;;20.17;;
10945;SDS011;5525;42.648;23.368;2023-12-07T02:52:13;35.60;;;19.83;;
10945;SDS011;5525;42.648;23.368;2023-12-07T02:54:40;34.97;;;20.17;;
10945;SDS011;5525;42.648;23.368;2023-12-07T02:57:07;37.85;;;20.35;;
10945;SDS011;5525;42.648;23.368;2023-12-07T02:59:34;34.97;;;20.35;;
10945;SDS011;5525;42.648;23.368;2023-12-07T03:02:03;36.58;;;20.10;;
10945;SDS011;5525;42.648;23.368;2023-12-07T03:04:30;38.45;;;21.75;;
10945;SDS011;5525;42.648;23.368;2023-12-07T03:06:57;33.60;;;19.73;;
10945;SDS011;5525;42.648;23.368;2023-12-07T03:09:24;34.55;;;19.17;;
10945;SDS011;5525;42.648;23.368;2023-12-07T03:11:51;34.08;;;19.10;;
10945;SDS011;5525;42.648;23.368;2023-12-07T03:14:17;34.42;;;18.05;;
10945;SDS011;5525;42.648;23.368;2023-12-07T03:16:45;31.88;;;18.30;;
10945;SDS011;5525;42.648;23.368;2023-12-07T03:19:13;35.88;;;19.98;;
10945;SDS011;5525;42.648;23.368;2023-12-07T03:21:40;32.53;;;18.77;;
10945;SDS011;5525;42.648;23.368;2023-12-07T03:24:08;32.92;;;19.25;;
10945;SDS011;5525;42.648;23.368;2023-12-07T03:26:35;34.83;;;19.40;;
10945;SDS011;5525;42.648;23.368;2023-12-07T03:29:02;33.47;;;20.17;;
10945;SDS011;5525;42.648;23.368;2023-12-07T03:31:29;31.13;;;18.75;;
10945;SDS011;5525;42.648;23.368;2023-12-07T03:33:56;31.88;;;18.33;;
10945;SDS011;5525;42.648;23.368;2023-12-07T03:36:25;34.20;;;19.02;;
10945;SDS011;5525;42.648;23.368;2023-12-07T03:38:52;32.70;;;19.30;;
10945;SDS011;5525;42.648;23.368;2023-12-07T03:41:19;33.85;;;19.55;;
10945;SDS011;5525;42.648;23.368;2023-12-07T03:43:46;32.88;;;18.90;;
10945;SDS011;5525;42.648;23.368;2023-12-07T03:46:12;29.90;;;18.85;;
10945;SDS011;5525;42.648;23.368;2023-12-07T03:48:39;31.33;;;18.50;;
10945;SDS011;5525;42.648;23.368;2023-12-07T03:51:06;29.65;;;17.85;;
10945;SDS011;5525;42.648;23.368;2023-12-07T03:53:34;31.77;;;18.17;;
10945;SDS011;5525;42.648;23.368;2023-12-07T03:56:01;31.13;;;18.17;;
10945;SDS011;5525;42.648;23.368;2023-12-07T03:58:28;33.33;;;18.45;;
10945;SDS011;5525;42.648;23.368;2023-12-07T04:00:54;32.00;;;18.70;;
10945;SDS011;5525;42.648;23.368;2023-12-07T04:03:21;33.63;;;19.15;;
10945;SDS011;5525;42.648;23.368;2023-12-07T04:05:48;30.92;;;18.23;;
10945;SDS011;5525;42.648;23.368;2023-12-07T04:08:15;28.83;;;17.38;;
10945;SDS011;5525;42.648;23.368;2023-12-07T04:10:43;35.88;;;19.42;;
10945;SDS011;5525;42.648;23.368;2023-12-07T04:13:09;31.63;;;18.30;;
10945;SDS011;5525;42.648;23.368;2023-12-07T04:15:36;34.53;;;18.85;;
10945;SDS011;5525;42.648;23.368;2023-12-07T04:18:03;33.22;;;19.35;;
10945;SDS011;5525;42.648;23.368;2023-12-07T04:20:30;31.70;;;18.88;;
10945;SDS011;5525;42.648;23.368;2023-12-07T04:22:56;32.28;;;18.40;;
10945;SDS011;5525;42.648;23.368;2023-12-07T04:25:23;35.85;;;19.95;;
10945;SDS011;5525;42.648;23.368;2023-12-07T04:27:51;54.13;;;33.53;;
10945;SDS011;5525;42.648;23.368;2023-12-07T04:30:18;40.75;;;24.90;;
10945;SDS011;5525;42.648;23.368;2023-12-07T04:32:45;33.83;;;20.05;;
10945;SDS011;5525;42.648;23.368;2023-12-07T04:35:12;33.50;;;18.23;;
10945;SDS011;5525;42.648;23.368;2023-12-07T04:37:38;30.45;;;17.92;;
10945;SDS011;5525;42.648;23.368;2023-12-07T04:40:06;28.65;;;17.80;;
10945;SDS011;5525;42.648;23.368;2023-12-07T04:42:33;29.77;;;18.17;;
10945;SDS011;5525;42.648;23.368;2023-12-07T04:45:01;29.95;;;18.05;;
10945;SDS011;5525;42.648;23.368;2023-12-07T04:47:28;30.38;;;17.05;;
10945;SDS011;5525;42.648;23.368;2023-12-07T04:49:55;31.25;;;18.10;;
10945;SDS011;5525;42.648;23.368;2023-12-07T04:52:22;28.35;;;17.67;;
10945;SDS011;5525;42.648;23.368;2023-12-07T04:54:49;27.25;;;17.20;;
10945;SDS011;5525;42.648;23.368;2023-12-07T04:57:16;30.48;;;17.27;;
10945;SDS011;5525;42.648;23.368;2023-12-07T04:59:42;29.52;;;17.83;;
10945;SDS011;5525;42.648;23.368;2023-12-07T05:02:13;29.25;;;17.30;;
10945;SDS011;5525;42.648;23.368;2023-12-07T05:04:40;29.63;;;17.50;;
10945;SDS011;5525;42.648;23.368;2023-12-07T05:07:07;30.42;;;17.95;;
10945;SDS011;5525;42.648;23.368;2023-12-07T05:09:34;30.02;;;18.00;;
10945;SDS011;5525;42.648;23.368;2023-12-07T05:12:01;31.75;;;18.55;;
10945;SDS011;5525;42.648;23.368;2023-12-07T05:14:28;30.70;;;19.40;;
10945;SDS011;5525;42.648;23.368;2023-12-07T05:16:56;30.90;;;17.85;;
10945;SDS011;5525;42.648;23.368;2023-12-07T05:19:25;30.65;;;18.25;;
10945;SDS011;5525;42.648;23.368;2023-12-07T05:21:52;28.83;;;17.90;;
10945;SDS011;5525;42.648;23.368;2023-12-07T05:24:18;27.80;;;17.20;;
10945;SDS011;5525;42.648;23.368;2023-12-07T05:26:45;30.65;;;18.33;;
10945;SDS011;5525;42.648;23.368;2023-12-07T05:29:12;28.45;;;18.33;;
10945;SDS011;5525;42.648;23.368;2023-12-07T05:31:39;27.70;;;16.45;;
10945;SDS011;5525;42.648;23.368;2023-12-07T05:34:07;22.80;;;15.57;;
10945;SDS011;5525;42.648;23.368;2023-12-07T05:36:35;24.83;;;15.02;;
10945;SDS011;5525;42.648;23.368;2023-12-07T05:39:02;26.30;;;16.08;;
10945;SDS011;5525;42.648;23.368;2023-12-07T05:41:32;23.20;;;15.20;;
10945;SDS011;5525;42.648;23.368;2023-12-07T05:43:59;26.45;;;15.43;;
10945;SDS011;5525;42.648;23.368;2023-12-07T05:46:25;25.15;;;15.63;;
10945;SDS011;5525;42.648;23.368;2023-12-07T05:48:53;26.48;;;16.02;;
10945;SDS011;5525;42.648;23.368;2023-12-07T05:51:20;27.23;;;15.20;;
10945;SDS011;5525;42.648;23.368;2023-12-07T05:53:48;24.85;;;15.48;;
10945;SDS011;5525;42.648;23.368;2023-12-07T05:56:17;27.23;;;16.27;;
10945;SDS011;5525;42.648;23.368;2023-12-07T05:58:45;31.00;;;20.98;;
10945;SDS011;5525;42.648;23.368;2023-12-07T06:01:12;26.20;;;16.58;;
10945;SDS011;5525;42.648;23.368;2023-12-07T06:03:39;24.48;;;16.45;;
10945;SDS011;5525;42.648;23.368;2023-12-07T06:06:07;24.92;;;15.52;;
10945;SDS011;5525;42.648;23.368;2023-12-07T06:08:36;26.65;;;17.23;;
10945;SDS011;5525;42.648;23.368;2023-12-07T06:11:05;29.27;;;16.30;;
10945;SDS011;5525;42.648;23.368;2023-12-07T06:13:31;27.27;;;16.73;;
10945;SDS011;5525;42.648;23.368;2023-12-07T06:15:58;24.45;;;15.57;;
10945;SDS011;5525;42.648;23.368;2023-12-07T06:18:26;25.60;;;15.93;;
10945;SDS011;5525;42.648;23.368;2023-12-07T06:20:53;25.27;;;17.27;;
10945;SDS011;5525;42.648;23.368;2023-12-07T06:23:19;26.25;;;16.42;;
10945;SDS011;5525;42.648;23.368;2023-12-07T06:25:46;26.75;;;16.45;;
10945;SDS011;5525;42.648;23.368;2023-12-07T06:28:15;23.75;;;15.32;;
10945;SDS011;5525;42.648;23.368;2023-12-07T06:30:42;27.65;;;18.23;;
10945;SDS011;5525;42.648;23.368;2023-12-07T06:33:10;26.60;;;16.40;;
10945;SDS011;5525;42.648;23.368;2023-12-07T06:35:36;26.25;;;16.27;;
10945;SDS011;5525;42.648;23.368;2023-12-07T06:38:04;24.00;;;17.05;;
10945;SDS011;5525;42.648;23.368;2023-12-07T06:40:30;26.75;;;15.63;;
10945;SDS011;5525;42.648;23.368;2023-12-07T06:42:58;26.65;;;15.23;;
10945;SDS011;5525;42.648;23.368;2023-12-07T06:45:26;25.70;;;17.05;;
10945;SDS011;5525;42.648;23.368;2023-12-07T06:47:53;25.77;;;16.08;;
10945;SDS011;5525;42.648;23.368;2023-12-07T06:50:19;24.42;;;15.60;;
10945;SDS011;5525;42.648;23.368;2023-12-07T06:52:46;25.30;;;15.27;;
10945;SDS011;5525;42.648;23.368;2023-12-07T06:55:13;23.52;;;15.65;;
10945;SDS011;5525;42.648;23.368;2023-12-07T06:57:40;26.05;;;15.30;;
10945;SDS011;5525;42.648;23.368;2023-12-07T07:00:07;22.50;;;13.57;;
10945;SDS011;5525;42.648;23.368;2023-12-07T07:02:37;23.98;;;15.05;;
10945;SDS011;5525;42.648;23.368;2023-12-07T07:05:04;21.83;;;13.63;;
10945;SDS011;5525;42.648;23.368;2023-12-07T07:07:32;19.30;;;12.18;;
10945;SDS011;5525;42.648;23.368;2023-12-07T07:09:58;20.50;;;12.10;;
10945;SDS011;5525;42.648;23.368;2023-12-07T07:12:25;19.60;;;11.65;;
10945;SDS011;5525;42.648;23.368;2023-12-07T07:14:52;20.08;;;12.60;;
10945;SDS011;5525;42.648;23.368;2023-12-07T07:17:19;20.17;;;12.43;;
10945;SDS011;5525;42.648;23.368;2023-12-07T07:19:47;19.08;;;11.50;;
10945;SDS011;5525;42.648;23.368;2023-12-07T07:22:14;19.98;;;10.90;;
10945;SDS011;5525;42.648;23.368;2023-12-07T07:24:41;22.95;;;11.70;;
10945;SDS011;5525;42.648;23.368;2023-12-07T07:27:08;15.90;;;10.10;;
10945;SDS011;5525;42.648;23.368;2023-12-07T07:29:35;18.08;;;10.93;;
10945;SDS011;5525;42.648;23.368;2023-12-07T07:32:02;18.08;;;10.95;;
10945;SDS011;5525;42.648;23.368;2023-12-07T07:34:29;17.30;;;10.50;;
10945;SDS011;5525;42.648;23.368;2023-12-07T07:36:57;16.58;;;10.88;;
10945;SDS011;5525;42.648;23.368;2023-12-07T07:39:24;18.95;;;13.05;;
10945;SDS011;5525;42.648;23.368;2023-12-07T07:41:51;17.80;;;11.23;;
10945;SDS011;5525;42.648;23.368;2023-12-07T07:44:18;16.65;;;10.70;;
10945;SDS011;5525;42.648;23.368;2023-12-07T07:46:44;16.60;;;10.63;;
10945;SDS011;5525;42.648;23.368;2023-12-07T07:49:11;18.42;;;11.65;;
10945;SDS011;5525;42.648;23.368;2023-12-07T07:51:38;18.63;;;12.40;;
10945;SDS011;5525;42.648;23.368;2023-12-07T07:54:06;17.98;;;12.05;;
10945;SDS011;5525;42.648;23.368;2023-12-07T07:56:33;20.02;;;12.63;;
10945;SDS011;5525;42.648;23.368;2023-12-07T07:59:02;16.63;;;11.02;;
10945;SDS011;5525;42.648;23.368;2023-12-07T08:01:30;21.30;;;12.55;;
10945;SDS011;5525;42.648;23.368;2023-12-07T08:03:57;19.80;;;12.32;;
10945;SDS011;5525;42.648;23.368;2023-12-07T08:06:24;21.42;;;12.77;;
10945;SDS011;5525;42.648;23.368;2023-12-07T08:08:54;20.85;;;11.80;;
10945;SDS011;5525;42.648;23.368;2023-12-07T08:11:22;16.33;;;10.13;;
10945;SDS011;5525;42.648;23.368;2023-12-07T08:13:49;15.48;;;9.43;;
10945;SDS011;5525;42.648;23.368;2023-12-07T08:16:16;13.88;;;7.97;;
10945;SDS011;5525;42.648;23.368;2023-12-07T08:18:43;11.52;;;8.77;;
10945;SDS011;5525;42.648;23.368;2023-12-07T08:21:17;14.15;;;8.90;;
10945;SDS011;5525;42.648;23.368;2023-12-07T08:23:45;14.07;;;8.23;;
10945;SDS011;5525;42.648;23.368;2023-12-07T08:26:11;15.38;;;8.65;;
10945;SDS011;5525;42.648;23.368;2023-12-07T08:28:40;11.65;;;7.40;;
10945;SDS011;5525;42.648;23.368;2023-12-07T08:31:09;10.95;;;7.40;;
10945;SDS011;5525;42.648;23.368;2023-12-07T08:33:36;11.07;;;7.60;;
10945;SDS011;5525;42.648;23.368;2023-12-07T08:36:04;11.73;;;7.78;;
10945;SDS011;5525;42.648;23.368;2023-12-07T08:38:32;11.50;;;7.25;;
10945;SDS011;5525;42.648;23.368;2023-12-07T08:40:59;11.90;;;8.38;;
10945;SDS011;5525;42.648;23.368;2023-12-07T08:43:26;10.93;;;7.47;;
10945;SDS011;5525;42.648;23.368;2023-12-07T08:45:55;10.70;;;7.75;;
10945;SDS011;5525;42.648;23.368;2023-12-07T08:48:22;9.02;;;5.95;;
10945;SDS011;5525;42.648;23.368;2023-12-07T08:50:50;8.88;;;5.80;;
10945;SDS011;5525;42.648;23.368;2023-12-07T08:53:18;9.00;;;5.30;;
10945;SDS011;5525;42.648;23.368;2023-12-07T08:55:45;8.63;;;5.65;;
10945;SDS011;5525;42.648;23.368;2023-12-07T08:58:12;8.95;;;5.05;;
10945;SDS011;5525;42.648;23.368;2023-12-07T09:00:40;7.97;;;5.78;;
10945;SDS011;5525;42.648;23.368;2023-12-07T09:03:10;6.88;;;5.32;;
10945;SDS011;5525;42.648;23.368;2023-12-07T09:05:37;8.45;;;5.43;;
10945;SDS011;5525;42.648;23.368;2023-12-07T09:08:07;5.88;;;4.32;;
10945;SDS011;5525;42.648;23.368;2023-12-07T09:10:44;5.50;;;4.10;;
10945;SDS011;5525;42.648;23.368;2023-12-07T09:13:10;6.03;;;4.30;;
10945;SDS011;5525;42.648;23.368;2023-12-07T09:15:37;6.38;;;4.88;;
10945;SDS011;5525;42.648;23.368;2023-12-07T09:18:04;4.90;;;4.35;;
10945;SDS011;5525;42.648;23.368;2023-12-07T09:20:32;7.43;;;4.32;;
10945;SDS011;5525;42.648;23.368;2023-12-07T09:22:59;6.65;;;4.57;;
10945;SDS011;5525;42.648;23.368;2023-12-07T09:25:26;5.53;;;3.58;;
10945;SDS011;5525;42.648;23.368;2023-12-07T09:27:53;4.13;;;3.30;;
10945;SDS011;5525;42.648;23.368;2023-12-07T09:30:20;3.65;;;2.88;;
10945;SDS011;5525;42.648;23.368;2023-12-07T09:32:47;5.93;;;2.92;;
10945;SDS011;5525;42.648;23.368;2023-12-07T09:35:13;4.10;;;3.05;;
10945;SDS011;5525;42.648;23.368;2023-12-07T09:37:45;3.60;;;2.80;;
10945;SDS011;5525;42.648;23.368;2023-12-07T09:40:15;2.53;;;2.05;;
10945;SDS011;5525;42.648;23.368;2023-12-07T09:42:43;2.17;;;1.98;;
10945;SDS011;5525;42.648;23.368;2023-12-07T09:45:11;2.90;;;2.60;;
10945;SDS011;5525;42.648;23.368;2023-12-07T09:47:38;3.08;;;2.20;;
10945;SDS011;5525;42.648;23.368;2023-12-07T09:50:07;3.90;;;1.77;;
10945;SDS011;5525;42.648;23.368;2023-12-07T09:52:34;1.80;;;1.70;;
10945;SDS011;5525;42.648;23.368;2023-12-07T09:55:03;2.45;;;1.70;;
10945;SDS011;5525;42.648;23.368;2023-12-07T09:57:31;2.75;;;1.90;;
10945;SDS011;5525;42.648;23.368;2023-12-07T09:59:59;2.45;;;2.00;;
10945;SDS011;5525;42.648;23.368;2023-12-07T10:02:25;1.98;;;1.77;;
10945;SDS011;5525;42.648;23.368;2023-12-07T10:05:02;2.17;;;1.83;;
10945;SDS011;5525;42.648;23.368;2023-12-07T10:07:32;1.90;;;1.70;;
10945;SDS011;5525;42.648;23.368;2023-12-07T10:10:00;2.90;;;1.92;;
10945;SDS011;5525;42.648;23.368;2023-12-07T10:12:29;1.92;;;1.63;;
10945;SDS011;5525;42.648;23.368;2023-12-07T10:14:58;2.38;;;1.95;;
10945;SDS011;5525;42.648;23.368;2023-12-07T10:17:31;2.13;;;1.63;;
10945;SDS011;5525;42.648;23.368;2023-12-07T10:20:10;1.17;;;1.08;;
10945;SDS011;5525;42.648;23.368;2023-12-07T10:22:38;2.47;;;1.52;;
10945;SDS011;5525;42.648;23.368;2023-12-07T10:25:05;2.85;;;1.90;;
10945;SDS011;5525;42.648;23.368;2023-12-07T10:27:33;2.90;;;1.60;;
10945;SDS011;5525;42.648;23.368;2023-12-07T10:30:01;2.17;;;1.52;;
10945;SDS011;5525;42.648;23.368;2023-12-07T10:32:27;3.63;;;1.60;;
10945;SDS011;5525;42.648;23.368;2023-12-07T10:34:54;1.50;;;1.38;;
10945;SDS011;5525;42.648;23.368;2023-12-07T10:37:26;1.48;;;1.30;;
10945;SDS011;5525;42.648;23.368;2023-12-07T10:39:53;4.00;;;1.70;;
10945;SDS011;5525;42.648;23.368;2023-12-07T10:42:20;1.95;;;1.50;;
10945;SDS011;5525;42.648;23.368;2023-12-07T10:44:53;3.15;;;1.80;;
10945;SDS011;5525;42.648;23.368;2023-12-07T10:47:24;1.85;;;1.30;;
10945;SDS011;5525;42.648;23.368;2023-12-07T10:49:52;2.65;;;1.70;;
10945;SDS011;5525;42.648;23.368;2023-12-07T10:52:24;1.90;;;1.50;;
10945;SDS011;5525;42.648;23.368;2023-12-07T10:54:53;1.65;;;1.48;;
10945;SDS011;5525;42.648;23.368;2023-12-07T10:57:28;2.55;;;1.60;;
10945;SDS011;5525;42.648;23.368;2023-12-07T10:59:58;2.28;;;1.88;;
10945;SDS011;5525;42.648;23.368;2023-12-07T11:02:26;3.72;;;1.52;;
10945;SDS011;5525;42.648;23.368;2023-12-07T11:04:54;1.65;;;1.50;;
10945;SDS011;5525;42.648;23.368;2023-12-07T11:07:24;1.40;;;1.30;;
10945;SDS011;5525;42.648;23.368;2023-12-07T11:09:57;2.38;;;1.88;;
10945;SDS011;5525;42.648;23.368;2023-12-07T11:15:17;2.47;;;1.80;;
10945;SDS011;5525;42.648;23.368;2023-12-07T11:17:49;1.83;;;1.60;;
10945;SDS011;5525;42.648;23.368;2023-12-07T11:20:18;3.35;;;1.98;;
10945;SDS011;5525;42.648;23.368;2023-12-07T11:22:46;2.08;;;1.65;;
10945;SDS011;5525;42.648;23.368;2023-12-07T11:25:14;2.67;;;1.92;;
10945;SDS011;5525;42.648;23.368;2023-12-07T11:27:43;2.25;;;1.50;;
10945;SDS011;5525;42.648;23.368;2023-12-07T11:30:12;2.00;;;1.65;;
10945;SDS011;5525;42.648;23.368;2023-12-07T11:32:42;2.95;;;2.50;;
10945;SDS011;5525;42.648;23.368;2023-12-07T11:35:12;4.13;;;2.30;;
10945;SDS011;5525;42.648;23.368;2023-12-07T11:40:31;2.65;;;1.95;;
10945;SDS011;5525;42.648;23.368;2023-12-07T11:42:59;4.85;;;2.80;;
10945;SDS011;5525;42.648;23.368;2023-12-07T11:45:35;2.80;;;1.98;;
10945;SDS011;5525;42.648;23.368;2023-12-07T11:48:12;2.70;;;2.00;;
10945;SDS011;5525;42.648;23.368;2023-12-07T11:50:53;2.70;;;2.10;;
10945;SDS011;5525;42.648;23.368;2023-12-07T11:53:23;2.15;;;1.85;;
10945;SDS011;5525;42.648;23.368;2023-12-07T11:55:51;3.22;;;2.00;;
10945;SDS011;5525;42.648;23.368;2023-12-07T11:58:18;2.53;;;2.05;;
10945;SDS011;5525;42.648;23.368;2023-12-07T12:00:45;2.20;;;1.70;;
10945;SDS011;5525;42.648;23.368;2023-12-07T12:03:14;2.50;;;1.70;;
10945;SDS011;5525;42.648;23.368;2023-12-07T12:05:41;1.67;;;1.58;;
10945;SDS011;5525;42.648;23.368;2023-12-07T12:08:09;3.55;;;1.73;;
10945;SDS011;5525;42.648;23.368;2023-12-07T12:10:36;2.53;;;1.60;;
10945;SDS011;5525;42.648;23.368;2023-12-07T12:13:03;3.92;;;2.10;;
10945;SDS011;5525;42.648;23.368;2023-12-07T12:15:31;3.83;;;2.65;;
10945;SDS011;5525;42.648;23.368;2023-12-07T12:17:58;3.65;;;2.30;;
10945;SDS011;5525;42.648;23.368;2023-12-07T12:20:27;3.22;;;2.05;;
10945;SDS011;5525;42.648;23.368;2023-12-07T12:22:54;2.78;;;2.28;;
10945;SDS011;5525;42.648;23.368;2023-12-07T12:25:22;4.95;;;2.70;;
10945;SDS011;5525;42.648;23.368;2023-12-07T12:27:51;2.55;;;2.17;;
10945;SDS011;5525;42.648;23.368;2023-12-07T12:30:20;3.55;;;2.55;;
10945;SDS011;5525;42.648;23.368;2023-12-07T12:32:47;2.72;;;2.25;;
10945;SDS011;5525;42.648;23.368;2023-12-07T12:35:15;3.88;;;1.90;;
10945;SDS011;5525;42.648;23.368;2023-12-07T12:37:46;2.50;;;2.00;;
10945;SDS011;5525;42.648;23.368;2023-12-07T12:40:15;6.00;;;2.13;;
10945;SDS011;5525;42.648;23.368;2023-12-07T12:42:43;2.95;;;1.95;;
10945;SDS011;5525;42.648;23.368;2023-12-07T12:45:11;4.80;;;2.60;;
10945;SDS011;5525;42.648;23.368;2023-12-07T12:47:40;3.13;;;2.17;;
10945;SDS011;5525;42.648;23.368;2023-12-07T12:50:08;3.13;;;2.30;;
10945;SDS011;5525;42.648;23.368;2023-12-07T12:52:36;3.60;;;2.85;;
10945;SDS011;5525;42.648;23.368;2023-12-07T12:55:08;3.53;;;2.72;;
10945;SDS011;5525;42.648;23.368;2023-12-07T12:57:36;3.78;;;2.65;;
10945;SDS011;5525;42.648;23.368;2023-12-07T13:00:04;3.28;;;2.67;;
10945;SDS011;5525;42.648;23.368;2023-12-07T13:02:33;3.83;;;2.80;;
10945;SDS011;5525;42.648;23.368;2023-12-07T13:05:00;4.30;;;2.88;;
10945;SDS011;5525;42.648;23.368;2023-12-07T13:07:27;5.22;;;3.10;;
10945;SDS011;5525;42.648;23.368;2023-12-07T13:09:54;3.10;;;2.67;;
10945;SDS011;5525;42.648;23.368;2023-12-07T13:12:22;4.55;;;3.13;;
10945;SDS011;5525;42.648;23.368;2023-12-07T13:14:52;2.80;;;2.60;;
10945;SDS011;5525;42.648;23.368;2023-12-07T13:17:19;4.55;;;2.45;;
10945;SDS011;5525;42.648;23.368;2023-12-07T13:19:46;2.53;;;2.33;;
10945;SDS011;5525;42.648;23.368;2023-12-07T13:22:15;4.40;;;3.00;;
10945;SDS011;5525;42.648;23.368;2023-12-07T13:24:43;3.78;;;3.08;;
10945;SDS011;5525;42.648;23.368;2023-12-07T13:27:09;3.05;;;2.70;;
10945;SDS011;5525;42.648;23.368;2023-12-07T13:29:38;3.70;;;2.53;;
10945;SDS011;5525;42.648;23.368;2023-12-07T13:32:04;2.95;;;2.65;;
10945;SDS011;5525;42.648;23.368;2023-12-07T13:34:32;2.92;;;2.50;;
10945;SDS011;5525;42.648;23.368;2023-12-07T13:36:59;3.22;;;2.88;;
10945;SDS011;5525;42.648;23.368;2023-12-07T13:39:25;3.40;;;2.63;;
10945;SDS011;5525;42.648;23.368;2023-12-07T13:41:52;3.17;;;2.47;;
10945;SDS011;5525;42.648;23.368;2023-12-07T13:44:21;5.13;;;3.15;;
10945;SDS011;5525;42.648;23.368;2023-12-07T13:46:50;4.40;;;2.50;;
10945;SDS011;5525;42.648;23.368;2023-12-07T13:49:18;5.13;;;3.83;;
10945;SDS011;5525;42.648;23.368;2023-12-07T13:51:45;8.27;;;6.00;;
10945;SDS011;5525;42.648;23.368;2023-12-07T13:54:12;7.38;;;4.55;;
10945;SDS011;5525;42.648;23.368;2023-12-07T13:56:39;5.57;;;4.22;;
10945;SDS011;5525;42.648;23.368;2023-12-07T13:59:06;4.90;;;4.30;;
10945;SDS011;5525;42.648;23.368;2023-12-07T14:01:35;8.45;;;5.15;;
10945;SDS011;5525;42.648;23.368;2023-12-07T14:04:06;10.05;;;4.47;;
10945;SDS011;5525;42.648;23.368;2023-12-07T14:06:33;5.38;;;4.00;;
10945;SDS011;5525;42.648;23.368;2023-12-07T14:09:00;4.63;;;3.72;;
10945;SDS011;5525;42.648;23.368;2023-12-07T14:11:27;6.35;;;4.68;;
10945;SDS011;5525;42.648;23.368;2023-12-07T14:13:54;4.80;;;3.95;;
10945;SDS011;5525;42.648;23.368;2023-12-07T14:16:20;5.93;;;3.95;;
10945;SDS011;5525;42.648;23.368;2023-12-07T14:18:47;5.25;;;3.53;;
10945;SDS011;5525;42.648;23.368;2023-12-07T14:21:19;5.50;;;3.90;;
10945;SDS011;5525;42.648;23.368;2023-12-07T14:23:47;5.57;;;4.13;;
10945;SDS011;5525;42.648;23.368;2023-12-07T14:26:14;5.75;;;4.30;;
10945;SDS011;5525;42.648;23.368;2023-12-07T14:28:40;5.45;;;3.97;;
10945;SDS011;5525;42.648;23.368;2023-12-07T14:31:07;6.30;;;4.38;;
10945;SDS011;5525;42.648;23.368;2023-12-07T14:33:39;5.32;;;4.15;;
10945;SDS011;5525;42.648;23.368;2023-12-07T14:36:08;8.48;;;4.25;;
10945;SDS011;5525;42.648;23.368;2023-12-07T14:38:38;6.80;;;4.75;;
10945;SDS011;5525;42.648;23.368;2023-12-07T14:41:06;7.07;;;4.60;;
10945;SDS011;5525;42.648;23.368;2023-12-07T14:43:33;6.65;;;5.30;;